Fort Smith Regional Airport
KFSM : now visible

Airfield :











YOU CAN JOIN US ON...

 
LOGIN :

Register | Disclaimer

   EN    FR    IT 

 









Legend :    VFR   Marginal VFR   IFR   Intensive IFR   Very Intensive IFR
Visi :
Ceiling :
>= 8 km
>= 3000ft
5 to 8 km
1000 to 3000 ft
1500m to 5 km
500 to 1000 ft
800 to 1500m
200 to 500 ft
< 800m
< 200 ft
Symbols :   Thunderstorms  Fog  Heavy snow  Heavy precipitations  Wind > 20 kt







- Airport Elevation : 469 ft
- IATA code : FSM


KFSM - Fort Smith Regional

CURRENT METAR :
  • 210753Z AUTO 05003KT 9SM CLR 03/01 A3007 RMK AO2 SLP182 T00280011

EXPIRED METARs :
  • 210653Z AUTO 06003KT 7SM CLR 03/01 A3007 RMK AO2 SLP183 T00330011
  • 210553Z AUTO 06004KT 10SM CLR 04/02 A3006 RMK AO2 SLP180 T00390017 10100 20039 401110028 51016

TAF KFSM
Valid from the 21 at 06:00 until the 22 at 06:00 UTC


210520Z 2106/2206 06004KT P6SM BKN250
FM211500 09008KT P6SM SCT100 BKN200
FM220000 08008KT P6SM SCT040 OVC100
PROB30 2200/2206 5SM -RA BR BKN040
KZME FIR / North America



MET'MAP, your aeronautical weather chart ! - Copyright ORBIFLY December 2007 - Disclaimer

ORBIFLY MET'MAP TEAM :

Programming & Development : Alexandra Zaïnal
Concept & Development : Baudouin d'Aumeries
Co-Development & Prog : Marc-Olivier Méhu
Technical & hardware support : Manuel Goepfert

Contact : metmap@orbifly.com




SOURCES & CREDITS :

   NOAA       Earth
Advisory